sensor_id;sensor_type;location;lat;lon;timestamp;P1;durP1;ratioP1;P2;durP2;ratioP2
11620;SDS011;5866;49.094;11.900;2023-03-03T00:01:25;37.30;;;33.47;;
11620;SDS011;5866;49.094;11.900;2023-03-03T00:03:52;38.33;;;32.63;;
11620;SDS011;5866;49.094;11.900;2023-03-03T00:06:20;49.73;;;45.17;;
11620;SDS011;5866;49.094;11.900;2023-03-03T00:08:49;37.10;;;33.30;;
11620;SDS011;5866;49.094;11.900;2023-03-03T00:11:17;41.40;;;37.17;;
11620;SDS011;5866;49.094;11.900;2023-03-03T00:13:47;39.73;;;35.43;;
11620;SDS011;5866;49.094;11.900;2023-03-03T00:16:20;45.00;;;40.70;;
11620;SDS011;5866;49.094;11.900;2023-03-03T00:18:50;45.23;;;40.73;;
11620;SDS011;5866;49.094;11.900;2023-03-03T00:21:22;42.33;;;38.07;;
11620;SDS011;5866;49.094;11.900;2023-03-03T00:23:54;37.20;;;32.83;;
11620;SDS011;5866;49.094;11.900;2023-03-03T00:26:29;52.43;;;47.73;;
11620;SDS011;5866;49.094;11.900;2023-03-03T00:29:03;46.63;;;42.33;;
11620;SDS011;5866;49.094;11.900;2023-03-03T00:31:50;50.47;;;45.77;;
11620;SDS011;5866;49.094;11.900;2023-03-03T00:34:19;42.83;;;38.67;;
11620;SDS011;5866;49.094;11.900;2023-03-03T00:36:52;43.03;;;38.70;;
11620;SDS011;5866;49.094;11.900;2023-03-03T00:39:24;39.47;;;35.47;;
11620;SDS011;5866;49.094;11.900;2023-03-03T00:41:55;40.13;;;36.13;;
11620;SDS011;5866;49.094;11.900;2023-03-03T00:44:32;48.73;;;44.10;;
11620;SDS011;5866;49.094;11.900;2023-03-03T00:47:23;69.57;;;63.57;;
11620;SDS011;5866;49.094;11.900;2023-03-03T00:50:10;32.37;;;28.93;;
11620;SDS011;5866;49.094;11.900;2023-03-03T00:52:58;32.87;;;25.60;;
11620;SDS011;5866;49.094;11.900;2023-03-03T00:55:28;28.93;;;24.67;;
11620;SDS011;5866;49.094;11.900;2023-03-03T00:57:57;35.40;;;31.73;;
11620;SDS011;5866;49.094;11.900;2023-03-03T01:00:26;45.33;;;40.97;;
11620;SDS011;5866;49.094;11.900;2023-03-03T01:02:54;44.07;;;39.77;;
11620;SDS011;5866;49.094;11.900;2023-03-03T01:05:22;37.13;;;33.23;;
11620;SDS011;5866;49.094;11.900;2023-03-03T01:07:49;50.00;;;45.20;;
11620;SDS011;5866;49.094;11.900;2023-03-03T01:10:17;44.57;;;40.20;;
11620;SDS011;5866;49.094;11.900;2023-03-03T01:12:44;53.97;;;49.00;;
11620;SDS011;5866;49.094;11.900;2023-03-03T01:15:13;49.73;;;45.17;;
11620;SDS011;5866;49.094;11.900;2023-03-03T01:17:42;59.57;;;54.47;;
11620;SDS011;5866;49.094;11.900;2023-03-03T01:20:10;57.40;;;52.40;;
11620;SDS011;5866;49.094;11.900;2023-03-03T01:22:40;64.77;;;59.40;;
11620;SDS011;5866;49.094;11.900;2023-03-03T01:25:08;54.43;;;49.73;;
11620;SDS011;5866;49.094;11.900;2023-03-03T01:27:36;59.20;;;54.47;;
11620;SDS011;5866;49.094;11.900;2023-03-03T01:30:03;57.23;;;51.67;;
11620;SDS011;5866;49.094;11.900;2023-03-03T01:32:32;62.60;;;57.17;;
11620;SDS011;5866;49.094;11.900;2023-03-03T01:35:01;61.50;;;56.57;;
11620;SDS011;5866;49.094;11.900;2023-03-03T01:37:28;50.37;;;45.77;;
11620;SDS011;5866;49.094;11.900;2023-03-03T01:39:56;45.47;;;40.97;;
11620;SDS011;5866;49.094;11.900;2023-03-03T01:42:23;50.50;;;45.87;;
11620;SDS011;5866;49.094;11.900;2023-03-03T01:45:17;38.57;;;34.40;;
11620;SDS011;5866;49.094;11.900;2023-03-03T01:47:50;56.97;;;52.00;;
11620;SDS011;5866;49.094;11.900;2023-03-03T01:50:26;56.53;;;51.53;;
11620;SDS011;5866;49.094;11.900;2023-03-03T01:52:58;41.00;;;36.63;;
11620;SDS011;5866;49.094;11.900;2023-03-03T01:55:29;32.27;;;28.17;;
11620;SDS011;5866;49.094;11.900;2023-03-03T01:58:01;32.17;;;28.17;;
11620;SDS011;5866;49.094;11.900;2023-03-03T02:00:34;38.50;;;34.57;;
11620;SDS011;5866;49.094;11.900;2023-03-03T02:03:04;27.37;;;22.53;;
11620;SDS011;5866;49.094;11.900;2023-03-03T02:05:33;43.30;;;39.00;;
11620;SDS011;5866;49.094;11.900;2023-03-03T02:08:02;39.30;;;35.17;;
11620;SDS011;5866;49.094;11.900;2023-03-03T02:10:30;36.37;;;30.63;;
11620;SDS011;5866;49.094;11.900;2023-03-03T02:12:58;29.07;;;24.83;;
11620;SDS011;5866;49.094;11.900;2023-03-03T02:15:27;32.43;;;26.03;;
11620;SDS011;5866;49.094;11.900;2023-03-03T02:17:58;41.03;;;37.07;;
11620;SDS011;5866;49.094;11.900;2023-03-03T02:20:34;31.70;;;28.03;;
11620;SDS011;5866;49.094;11.900;2023-03-03T02:23:11;42.20;;;37.90;;
11620;SDS011;5866;49.094;11.900;2023-03-03T02:25:45;48.97;;;44.53;;
11620;SDS011;5866;49.094;11.900;2023-03-03T02:28:20;62.57;;;57.10;;
11620;SDS011;5866;49.094;11.900;2023-03-03T02:30:52;54.57;;;50.17;;
11620;SDS011;5866;49.094;11.900;2023-03-03T02:33:20;67.43;;;62.07;;
11620;SDS011;5866;49.094;11.900;2023-03-03T02:35:48;68.30;;;62.50;;
11620;SDS011;5866;49.094;11.900;2023-03-03T02:38:18;61.00;;;56.03;;
11620;SDS011;5866;49.094;11.900;2023-03-03T02:40:52;66.80;;;61.60;;
11620;SDS011;5866;49.094;11.900;2023-03-03T02:43:29;55.17;;;50.27;;
11620;SDS011;5866;49.094;11.900;2023-03-03T02:46:00;54.50;;;49.67;;
11620;SDS011;5866;49.094;11.900;2023-03-03T02:48:27;50.23;;;45.97;;
11620;SDS011;5866;49.094;11.900;2023-03-03T02:50:55;50.57;;;46.17;;
11620;SDS011;5866;49.094;11.900;2023-03-03T02:53:22;43.73;;;39.87;;
11620;SDS011;5866;49.094;11.900;2023-03-03T02:55:50;47.80;;;43.47;;
11620;SDS011;5866;49.094;11.900;2023-03-03T02:58:17;34.57;;;31.20;;
11620;SDS011;5866;49.094;11.900;2023-03-03T03:00:46;31.33;;;27.10;;
11620;SDS011;5866;49.094;11.900;2023-03-03T03:03:13;37.53;;;33.97;;
11620;SDS011;5866;49.094;11.900;2023-03-03T03:05:41;41.00;;;37.03;;
11620;SDS011;5866;49.094;11.900;2023-03-03T03:08:08;40.53;;;36.83;;
11620;SDS011;5866;49.094;11.900;2023-03-03T03:10:36;37.33;;;33.60;;
11620;SDS011;5866;49.094;11.900;2023-03-03T03:13:04;29.17;;;23.00;;
11620;SDS011;5866;49.094;11.900;2023-03-03T03:15:31;34.17;;;30.93;;
11620;SDS011;5866;49.094;11.900;2023-03-03T03:18:00;36.60;;;33.13;;
11620;SDS011;5866;49.094;11.900;2023-03-03T03:20:27;32.30;;;28.90;;
11620;SDS011;5866;49.094;11.900;2023-03-03T03:22:55;39.33;;;35.47;;
11620;SDS011;5866;49.094;11.900;2023-03-03T03:25:23;42.00;;;38.20;;
11620;SDS011;5866;49.094;11.900;2023-03-03T03:27:50;30.23;;;27.17;;
11620;SDS011;5866;49.094;11.900;2023-03-03T03:30:18;33.87;;;30.70;;
11620;SDS011;5866;49.094;11.900;2023-03-03T03:32:47;37.00;;;33.40;;
11620;SDS011;5866;49.094;11.900;2023-03-03T03:35:16;27.70;;;19.57;;
11620;SDS011;5866;49.094;11.900;2023-03-03T03:37:44;36.00;;;32.40;;
11620;SDS011;5866;49.094;11.900;2023-03-03T03:40:11;25.57;;;20.17;;
11620;SDS011;5866;49.094;11.900;2023-03-03T03:42:39;28.80;;;23.37;;
11620;SDS011;5866;49.094;11.900;2023-03-03T03:45:07;23.50;;;18.10;;
11620;SDS011;5866;49.094;11.900;2023-03-03T03:47:35;36.77;;;33.10;;
11620;SDS011;5866;49.094;11.900;2023-03-03T03:50:03;27.53;;;24.47;;
11620;SDS011;5866;49.094;11.900;2023-03-03T03:52:32;26.77;;;22.47;;
11620;SDS011;5866;49.094;11.900;2023-03-03T03:55:00;27.60;;;24.27;;
11620;SDS011;5866;49.094;11.900;2023-03-03T03:57:27;28.93;;;23.93;;
11620;SDS011;5866;49.094;11.900;2023-03-03T03:59:55;30.07;;;25.57;;
11620;SDS011;5866;49.094;11.900;2023-03-03T04:02:22;32.83;;;29.63;;
11620;SDS011;5866;49.094;11.900;2023-03-03T04:04:50;27.70;;;21.80;;
11620;SDS011;5866;49.094;11.900;2023-03-03T04:07:18;25.13;;;18.97;;
11620;SDS011;5866;49.094;11.900;2023-03-03T04:09:46;23.27;;;17.87;;
11620;SDS011;5866;49.094;11.900;2023-03-03T04:12:14;28.97;;;26.10;;
11620;SDS011;5866;49.094;11.900;2023-03-03T04:14:41;35.70;;;32.13;;
11620;SDS011;5866;49.094;11.900;2023-03-03T04:17:09;31.87;;;28.70;;
11620;SDS011;5866;49.094;11.900;2023-03-03T04:19:42;32.13;;;28.80;;
11620;SDS011;5866;49.094;11.900;2023-03-03T04:22:09;25.90;;;23.03;;
11620;SDS011;5866;49.094;11.900;2023-03-03T04:24:37;24.80;;;20.27;;
11620;SDS011;5866;49.094;11.900;2023-03-03T04:27:06;35.33;;;23.00;;
11620;SDS011;5866;49.094;11.900;2023-03-03T04:29:34;31.73;;;26.67;;
11620;SDS011;5866;49.094;11.900;2023-03-03T04:32:02;46.63;;;42.40;;
11620;SDS011;5866;49.094;11.900;2023-03-03T04:34:30;52.90;;;48.30;;
11620;SDS011;5866;49.094;11.900;2023-03-03T04:36:57;36.80;;;33.27;;
11620;SDS011;5866;49.094;11.900;2023-03-03T04:39:25;27.77;;;23.60;;
11620;SDS011;5866;49.094;11.900;2023-03-03T04:41:52;26.10;;;20.80;;
11620;SDS011;5866;49.094;11.900;2023-03-03T04:44:21;27.80;;;21.93;;
11620;SDS011;5866;49.094;11.900;2023-03-03T04:46:49;28.03;;;20.23;;
11620;SDS011;5866;49.094;11.900;2023-03-03T04:49:16;30.67;;;26.70;;
11620;SDS011;5866;49.094;11.900;2023-03-03T04:51:43;30.23;;;25.20;;
11620;SDS011;5866;49.094;11.900;2023-03-03T04:54:11;29.67;;;24.27;;
11620;SDS011;5866;49.094;11.900;2023-03-03T04:56:38;26.83;;;21.43;;
11620;SDS011;5866;49.094;11.900;2023-03-03T04:59:06;39.50;;;35.77;;
11620;SDS011;5866;49.094;11.900;2023-03-03T05:01:35;28.90;;;23.77;;
11620;SDS011;5866;49.094;11.900;2023-03-03T05:04:02;31.60;;;26.27;;
11620;SDS011;5866;49.094;11.900;2023-03-03T05:06:30;39.97;;;35.80;;
11620;SDS011;5866;49.094;11.900;2023-03-03T05:08:57;40.27;;;36.27;;
11620;SDS011;5866;49.094;11.900;2023-03-03T05:11:25;38.20;;;34.23;;
11620;SDS011;5866;49.094;11.900;2023-03-03T05:13:52;29.20;;;21.70;;
11620;SDS011;5866;49.094;11.900;2023-03-03T05:16:20;29.97;;;22.77;;
11620;SDS011;5866;49.094;11.900;2023-03-03T05:18:49;34.43;;;30.90;;
11620;SDS011;5866;49.094;11.900;2023-03-03T05:21:16;41.80;;;37.87;;
11620;SDS011;5866;49.094;11.900;2023-03-03T05:23:44;44.17;;;40.20;;
11620;SDS011;5866;49.094;11.900;2023-03-03T05:26:11;31.90;;;24.43;;
11620;SDS011;5866;49.094;11.900;2023-03-03T05:28:39;35.07;;;28.07;;
11620;SDS011;5866;49.094;11.900;2023-03-03T05:31:06;38.17;;;34.50;;
11620;SDS011;5866;49.094;11.900;2023-03-03T05:33:34;43.33;;;39.57;;
11620;SDS011;5866;49.094;11.900;2023-03-03T05:36:03;34.87;;;31.37;;
11620;SDS011;5866;49.094;11.900;2023-03-03T05:38:31;46.33;;;42.50;;
11620;SDS011;5866;49.094;11.900;2023-03-03T05:40:58;31.90;;;28.53;;
11620;SDS011;5866;49.094;11.900;2023-03-03T05:43:25;46.47;;;42.10;;
11620;SDS011;5866;49.094;11.900;2023-03-03T05:45:54;35.57;;;31.70;;
11620;SDS011;5866;49.094;11.900;2023-03-03T05:48:22;41.33;;;37.33;;
11620;SDS011;5866;49.094;11.900;2023-03-03T05:50:50;40.70;;;36.67;;
11620;SDS011;5866;49.094;11.900;2023-03-03T05:53:19;51.33;;;46.73;;
11620;SDS011;5866;49.094;11.900;2023-03-03T05:55:46;57.73;;;52.50;;
11620;SDS011;5866;49.094;11.900;2023-03-03T05:58:14;51.87;;;47.07;;
11620;SDS011;5866;49.094;11.900;2023-03-03T06:00:42;50.40;;;46.00;;
11620;SDS011;5866;49.094;11.900;2023-03-03T06:03:09;54.97;;;49.93;;
11620;SDS011;5866;49.094;11.900;2023-03-03T06:05:37;52.77;;;48.23;;
11620;SDS011;5866;49.094;11.900;2023-03-03T06:08:04;34.47;;;30.97;;
11620;SDS011;5866;49.094;11.900;2023-03-03T06:10:33;34.70;;;31.07;;
11620;SDS011;5866;49.094;11.900;2023-03-03T06:13:00;39.43;;;35.83;;
11620;SDS011;5866;49.094;11.900;2023-03-03T06:15:28;38.20;;;34.87;;
11620;SDS011;5866;49.094;11.900;2023-03-03T06:17:56;43.77;;;39.80;;
11620;SDS011;5866;49.094;11.900;2023-03-03T06:20:23;29.93;;;26.77;;
11620;SDS011;5866;49.094;11.900;2023-03-03T06:22:51;33.33;;;29.93;;
11620;SDS011;5866;49.094;11.900;2023-03-03T06:25:19;34.67;;;31.27;;
11620;SDS011;5866;49.094;11.900;2023-03-03T06:27:48;31.10;;;28.03;;
11620;SDS011;5866;49.094;11.900;2023-03-03T06:30:15;25.80;;;21.13;;
11620;SDS011;5866;49.094;11.900;2023-03-03T06:32:44;27.40;;;20.43;;
11620;SDS011;5866;49.094;11.900;2023-03-03T06:35:11;24.80;;;17.07;;
11620;SDS011;5866;49.094;11.900;2023-03-03T06:37:39;23.40;;;20.03;;
11620;SDS011;5866;49.094;11.900;2023-03-03T06:40:07;26.53;;;15.73;;
11620;SDS011;5866;49.094;11.900;2023-03-03T06:42:35;33.67;;;30.50;;
11620;SDS011;5866;49.094;11.900;2023-03-03T06:45:05;25.30;;;19.07;;
11620;SDS011;5866;49.094;11.900;2023-03-03T06:47:33;27.67;;;24.83;;
11620;SDS011;5866;49.094;11.900;2023-03-03T06:50:00;28.43;;;22.17;;
11620;SDS011;5866;49.094;11.900;2023-03-03T06:52:28;25.37;;;17.90;;
11620;SDS011;5866;49.094;11.900;2023-03-03T06:54:57;24.97;;;19.43;;
11620;SDS011;5866;49.094;11.900;2023-03-03T06:57:28;21.73;;;15.73;;
11620;SDS011;5866;49.094;11.900;2023-03-03T06:59:57;29.37;;;25.60;;
11620;SDS011;5866;49.094;11.900;2023-03-03T07:02:30;29.80;;;21.80;;
11620;SDS011;5866;49.094;11.900;2023-03-03T07:04:58;36.23;;;32.80;;
11620;SDS011;5866;49.094;11.900;2023-03-03T07:07:25;28.10;;;24.87;;
11620;SDS011;5866;49.094;11.900;2023-03-03T07:09:53;53.20;;;48.67;;
11620;SDS011;5866;49.094;11.900;2023-03-03T07:12:23;63.53;;;58.83;;
11620;SDS011;5866;49.094;11.900;2023-03-03T07:14:54;57.93;;;53.47;;
11620;SDS011;5866;49.094;11.900;2023-03-03T07:17:29;51.73;;;47.47;;
11620;SDS011;5866;49.094;11.900;2023-03-03T07:19:57;45.47;;;41.60;;
11620;SDS011;5866;49.094;11.900;2023-03-03T07:22:25;30.70;;;27.73;;
11620;SDS011;5866;49.094;11.900;2023-03-03T07:24:56;25.57;;;20.87;;
11620;SDS011;5866;49.094;11.900;2023-03-03T07:27:27;28.00;;;22.33;;
11620;SDS011;5866;49.094;11.900;2023-03-03T07:29:59;21.33;;;15.40;;
11620;SDS011;5866;49.094;11.900;2023-03-03T07:32:45;26.00;;;16.80;;
11620;SDS011;5866;49.094;11.900;2023-03-03T07:35:21;19.50;;;12.77;;
11620;SDS011;5866;49.094;11.900;2023-03-03T07:37:55;32.50;;;13.33;;
11620;SDS011;5866;49.094;11.900;2023-03-03T07:40:28;24.17;;;13.03;;
11620;SDS011;5866;49.094;11.900;2023-03-03T07:43:11;21.40;;;12.47;;
11620;SDS011;5866;49.094;11.900;2023-03-03T07:45:54;19.53;;;12.13;;
11620;SDS011;5866;49.094;11.900;2023-03-03T07:48:30;21.53;;;12.60;;
11620;SDS011;5866;49.094;11.900;2023-03-03T07:51:03;19.97;;;11.70;;
11620;SDS011;5866;49.094;11.900;2023-03-03T07:53:37;16.67;;;10.27;;
11620;SDS011;5866;49.094;11.900;2023-03-03T07:56:11;18.83;;;11.23;;
11620;SDS011;5866;49.094;11.900;2023-03-03T07:58:43;17.97;;;11.17;;
11620;SDS011;5866;49.094;11.900;2023-03-03T08:04:14;19.67;;;11.30;;
11620;SDS011;5866;49.094;11.900;2023-03-03T08:06:45;14.83;;;8.77;;
11620;SDS011;5866;49.094;11.900;2023-03-03T08:15:17;22.60;;;12.27;;
11620;SDS011;5866;49.094;11.900;2023-03-03T08:17:48;19.90;;;11.97;;
11620;SDS011;5866;49.094;11.900;2023-03-03T08:23:10;22.77;;;12.43;;
11620;SDS011;5866;49.094;11.900;2023-03-03T08:25:39;22.43;;;11.80;;
11620;SDS011;5866;49.094;11.900;2023-03-03T08:28:07;18.43;;;11.90;;
11620;SDS011;5866;49.094;11.900;2023-03-03T08:30:35;16.43;;;11.00;;
11620;SDS011;5866;49.094;11.900;2023-03-03T08:33:03;18.67;;;10.47;;
11620;SDS011;5866;49.094;11.900;2023-03-03T08:35:30;19.07;;;12.40;;
11620;SDS011;5866;49.094;11.900;2023-03-03T08:37:59;19.83;;;12.50;;
11620;SDS011;5866;49.094;11.900;2023-03-03T08:40:27;20.93;;;11.50;;
11620;SDS011;5866;49.094;11.900;2023-03-03T08:42:55;17.40;;;11.77;;
11620;SDS011;5866;49.094;11.900;2023-03-03T08:45:23;20.27;;;12.40;;
11620;SDS011;5866;49.094;11.900;2023-03-03T08:47:51;19.53;;;12.03;;
11620;SDS011;5866;49.094;11.900;2023-03-03T08:50:19;17.23;;;13.17;;
11620;SDS011;5866;49.094;11.900;2023-03-03T08:52:47;17.97;;;12.30;;
11620;SDS011;5866;49.094;11.900;2023-03-03T08:55:16;19.67;;;12.30;;
11620;SDS011;5866;49.094;11.900;2023-03-03T08:57:44;19.90;;;12.88;;
11620;SDS011;5866;49.094;11.900;2023-03-03T09:00:13;20.50;;;12.73;;
11620;SDS011;5866;49.094;11.900;2023-03-03T09:02:43;18.37;;;10.43;;
11620;SDS011;5866;49.094;11.900;2023-03-03T09:05:11;18.60;;;11.70;;
11620;SDS011;5866;49.094;11.900;2023-03-03T09:07:39;15.13;;;9.73;;
11620;SDS011;5866;49.094;11.900;2023-03-03T09:10:08;14.07;;;8.47;;
11620;SDS011;5866;49.094;11.900;2023-03-03T09:12:40;18.70;;;11.27;;
11620;SDS011;5866;49.094;11.900;2023-03-03T09:15:14;18.17;;;11.43;;
11620;SDS011;5866;49.094;11.900;2023-03-03T09:17:45;17.07;;;9.37;;
11620;SDS011;5866;49.094;11.900;2023-03-03T09:20:21;19.57;;;10.17;;
11620;SDS011;5866;49.094;11.900;2023-03-03T09:23:24;19.60;;;12.37;;
11620;SDS011;5866;49.094;11.900;2023-03-03T09:25:56;16.53;;;8.40;;
11620;SDS011;5866;49.094;11.900;2023-03-03T09:28:27;16.37;;;9.97;;
11620;SDS011;5866;49.094;11.900;2023-03-03T09:30:58;21.73;;;12.73;;
11620;SDS011;5866;49.094;11.900;2023-03-03T09:33:39;20.73;;;12.37;;
11620;SDS011;5866;49.094;11.900;2023-03-03T09:36:11;15.57;;;8.77;;
11620;SDS011;5866;49.094;11.900;2023-03-03T09:38:49;19.53;;;12.80;;
11620;SDS011;5866;49.094;11.900;2023-03-03T09:41:33;21.23;;;12.97;;
11620;SDS011;5866;49.094;11.900;2023-03-03T09:44:24;20.67;;;11.07;;
11620;SDS011;5866;49.094;11.900;2023-03-03T09:47:04;18.67;;;12.03;;
11620;SDS011;5866;49.094;11.900;2023-03-03T09:49:43;19.67;;;12.17;;
11620;SDS011;5866;49.094;11.900;2023-03-03T09:52:26;20.40;;;11.97;;
11620;SDS011;5866;49.094;11.900;2023-03-03T09:55:07;17.55;;;11.70;;
11620;SDS011;5866;49.094;11.900;2023-03-03T09:57:50;18.17;;;11.13;;
11620;SDS011;5866;49.094;11.900;2023-03-03T10:00:40;20.10;;;12.48;;
11620;SDS011;5866;49.094;11.900;2023-03-03T10:06:21;19.52;;;12.48;;
11620;SDS011;5866;49.094;11.900;2023-03-03T10:08:56;21.65;;;14.40;;
11620;SDS011;5866;49.094;11.900;2023-03-03T10:11:35;20.15;;;12.65;;
11620;SDS011;5866;49.094;11.900;2023-03-03T10:14:23;22.13;;;13.23;;
11620;SDS011;5866;49.094;11.900;2023-03-03T10:17:12;20.35;;;13.85;;
11620;SDS011;5866;49.094;11.900;2023-03-03T10:19:56;21.10;;;13.07;;
11620;SDS011;5866;49.094;11.900;2023-03-03T10:22:32;21.83;;;12.90;;
11620;SDS011;5866;49.094;11.900;2023-03-03T10:25:12;19.38;;;12.13;;
11620;SDS011;5866;49.094;11.900;2023-03-03T10:30:52;19.35;;;12.30;;
11620;SDS011;5866;49.094;11.900;2023-03-03T10:33:39;17.95;;;12.23;;
11620;SDS011;5866;49.094;11.900;2023-03-03T10:36:19;21.85;;;13.32;;
11620;SDS011;5866;49.094;11.900;2023-03-03T10:39:01;19.63;;;14.00;;
11620;SDS011;5866;49.094;11.900;2023-03-03T10:41:48;22.33;;;14.25;;
11620;SDS011;5866;49.094;11.900;2023-03-03T10:44:30;21.63;;;12.75;;
11620;SDS011;5866;49.094;11.900;2023-03-03T10:47:18;22.25;;;13.85;;
11620;SDS011;5866;49.094;11.900;2023-03-03T10:49:57;24.38;;;13.57;;
11620;SDS011;5866;49.094;11.900;2023-03-03T10:52:35;23.02;;;13.15;;
11620;SDS011;5866;49.094;11.900;2023-03-03T10:55:18;20.63;;;13.05;;
11620;SDS011;5866;49.094;11.900;2023-03-03T10:57:56;19.17;;;13.60;;
11620;SDS011;5866;49.094;11.900;2023-03-03T11:00:35;20.42;;;13.38;;
11620;SDS011;5866;49.094;11.900;2023-03-03T11:03:18;24.65;;;14.25;;
11620;SDS011;5866;49.094;11.900;2023-03-03T11:06:00;19.73;;;12.98;;
11620;SDS011;5866;49.094;11.900;2023-03-03T11:08:33;22.75;;;14.20;;
11620;SDS011;5866;49.094;11.900;2023-03-03T11:11:09;22.20;;;14.25;;
11620;SDS011;5866;49.094;11.900;2023-03-03T11:13:44;19.58;;;13.40;;
11620;SDS011;5866;49.094;11.900;2023-03-03T11:16:21;19.00;;;12.77;;
11620;SDS011;5866;49.094;11.900;2023-03-03T11:19:05;23.85;;;13.75;;
11620;SDS011;5866;49.094;11.900;2023-03-03T11:21:41;19.85;;;13.90;;
11620;SDS011;5866;49.094;11.900;2023-03-03T11:24:18;24.77;;;13.98;;
11620;SDS011;5866;49.094;11.900;2023-03-03T11:27:05;21.08;;;13.32;;
11620;SDS011;5866;49.094;11.900;2023-03-03T11:29:45;19.75;;;12.65;;
11620;SDS011;5866;49.094;11.900;2023-03-03T11:32:25;19.40;;;12.60;;
11620;SDS011;5866;49.094;11.900;2023-03-03T11:35:07;23.17;;;13.77;;
11620;SDS011;5866;49.094;11.900;2023-03-03T11:37:50;26.95;;;13.52;;
11620;SDS011;5866;49.094;11.900;2023-03-03T11:40:29;18.95;;;13.15;;
11620;SDS011;5866;49.094;11.900;2023-03-03T11:43:03;20.95;;;13.80;;
11620;SDS011;5866;49.094;11.900;2023-03-03T11:45:38;20.33;;;12.90;;
11620;SDS011;5866;49.094;11.900;2023-03-03T11:48:11;21.15;;;13.10;;
11620;SDS011;5866;49.094;11.900;2023-03-03T11:50:46;22.00;;;13.60;;
11620;SDS011;5866;49.094;11.900;2023-03-03T11:53:25;18.13;;;12.70;;
11620;SDS011;5866;49.094;11.900;2023-03-03T11:56:03;19.30;;;13.02;;
11620;SDS011;5866;49.094;11.900;2023-03-03T11:58:42;23.27;;;13.57;;
11620;SDS011;5866;49.094;11.900;2023-03-03T12:01:15;21.40;;;13.63;;
11620;SDS011;5866;49.094;11.900;2023-03-03T12:03:49;18.40;;;11.60;;
11620;SDS011;5866;49.094;11.900;2023-03-03T12:06:23;18.40;;;13.52;;
11620;SDS011;5866;49.094;11.900;2023-03-03T12:09:02;19.42;;;13.02;;
11620;SDS011;5866;49.094;11.900;2023-03-03T12:11:47;19.65;;;13.98;;
11620;SDS011;5866;49.094;11.900;2023-03-03T12:14:23;17.73;;;13.48;;
11620;SDS011;5866;49.094;11.900;2023-03-03T12:17:00;20.23;;;13.50;;
11620;SDS011;5866;49.094;11.900;2023-03-03T12:19:33;21.95;;;13.88;;
11620;SDS011;5866;49.094;11.900;2023-03-03T12:22:13;21.13;;;13.32;;
11620;SDS011;5866;49.094;11.900;2023-03-03T12:24:56;19.55;;;13.60;;
11620;SDS011;5866;49.094;11.900;2023-03-03T12:27:49;18.35;;;12.65;;
11620;SDS011;5866;49.094;11.900;2023-03-03T12:30:28;18.52;;;13.00;;
11620;SDS011;5866;49.094;11.900;2023-03-03T12:33:14;19.50;;;13.02;;
11620;SDS011;5866;49.094;11.900;2023-03-03T12:35:50;18.33;;;12.63;;
11620;SDS011;5866;49.094;11.900;2023-03-03T12:38:30;23.70;;;12.57;;
11620;SDS011;5866;49.094;11.900;2023-03-03T12:41:07;16.40;;;12.23;;
11620;SDS011;5866;49.094;11.900;2023-03-03T12:43:51;17.00;;;11.60;;
11620;SDS011;5866;49.094;11.900;2023-03-03T12:46:28;19.27;;;12.52;;
11620;SDS011;5866;49.094;11.900;2023-03-03T12:49:05;22.08;;;12.65;;
11620;SDS011;5866;49.094;11.900;2023-03-03T12:51:34;18.83;;;12.25;;
11620;SDS011;5866;49.094;11.900;2023-03-03T12:54:13;18.13;;;12.20;;
11620;SDS011;5866;49.094;11.900;2023-03-03T12:56:51;22.70;;;13.27;;
11620;SDS011;5866;49.094;11.900;2023-03-03T12:59:24;19.13;;;13.25;;
11620;SDS011;5866;49.094;11.900;2023-03-03T13:02:14;17.27;;;12.13;;
11620;SDS011;5866;49.094;11.900;2023-03-03T13:04:57;16.02;;;11.48;;
11620;SDS011;5866;49.094;11.900;2023-03-03T13:07:34;17.80;;;12.13;;
11620;SDS011;5866;49.094;11.900;2023-03-03T13:10:11;19.67;;;11.80;;
11620;SDS011;5866;49.094;11.900;2023-03-03T13:12:48;19.80;;;12.20;;
11620;SDS011;5866;49.094;11.900;2023-03-03T13:15:20;19.13;;;13.57;;
11620;SDS011;5866;49.094;11.900;2023-03-03T13:18:06;18.52;;;11.93;;
11620;SDS011;5866;49.094;11.900;2023-03-03T13:20:48;22.92;;;13.77;;
11620;SDS011;5866;49.094;11.900;2023-03-03T13:23:21;18.38;;;12.82;;
11620;SDS011;5866;49.094;11.900;2023-03-03T13:25:58;18.38;;;12.57;;
11620;SDS011;5866;49.094;11.900;2023-03-03T13:28:36;18.55;;;12.35;;
11620;SDS011;5866;49.094;11.900;2023-03-03T13:31:07;16.75;;;11.18;;
11620;SDS011;5866;49.094;11.900;2023-03-03T13:33:41;18.52;;;11.70;;
11620;SDS011;5866;49.094;11.900;2023-03-03T13:36:17;17.45;;;11.98;;
11620;SDS011;5866;49.094;11.900;2023-03-03T13:38:45;20.23;;;12.18;;
11620;SDS011;5866;49.094;11.900;2023-03-03T13:41:16;21.38;;;12.43;;
11620;SDS011;5866;49.094;11.900;2023-03-03T13:43:52;18.80;;;11.85;;
11620;SDS011;5866;49.094;11.900;2023-03-03T13:46:27;17.00;;;12.15;;
11620;SDS011;5866;49.094;11.900;2023-03-03T13:49:05;15.40;;;11.05;;
11620;SDS011;5866;49.094;11.900;2023-03-03T13:51:42;16.80;;;11.02;;
11620;SDS011;5866;49.094;11.900;2023-03-03T13:54:20;17.80;;;10.15;;
11620;SDS011;5866;49.094;11.900;2023-03-03T13:57:06;16.08;;;11.93;;
11620;SDS011;5866;49.094;11.900;2023-03-03T13:59:44;15.63;;;11.18;;
11620;SDS011;5866;49.094;11.900;2023-03-03T14:02:23;19.52;;;11.40;;
11620;SDS011;5866;49.094;11.900;2023-03-03T14:05:11;18.20;;;11.98;;
11620;SDS011;5866;49.094;11.900;2023-03-03T14:07:44;16.40;;;12.05;;
11620;SDS011;5866;49.094;11.900;2023-03-03T14:10:18;17.08;;;11.35;;
11620;SDS011;5866;49.094;11.900;2023-03-03T14:12:53;17.38;;;11.48;;
11620;SDS011;5866;49.094;11.900;2023-03-03T14:15:30;16.25;;;11.25;;
11620;SDS011;5866;49.094;11.900;2023-03-03T14:18:04;14.48;;;11.13;;
11620;SDS011;5866;49.094;11.900;2023-03-03T14:20:46;16.35;;;11.05;;
11620;SDS011;5866;49.094;11.900;2023-03-03T14:23:17;13.50;;;10.00;;
11620;SDS011;5866;49.094;11.900;2023-03-03T14:25:50;15.50;;;10.73;;
11620;SDS011;5866;49.094;11.900;2023-03-03T14:28:21;12.07;;;9.18;;
11620;SDS011;5866;49.094;11.900;2023-03-03T14:30:51;14.85;;;9.57;;
11620;SDS011;5866;49.094;11.900;2023-03-03T14:33:22;15.00;;;9.88;;
11620;SDS011;5866;49.094;11.900;2023-03-03T14:36:02;16.33;;;10.30;;
11620;SDS011;5866;49.094;11.900;2023-03-03T14:38:43;16.83;;;11.10;;
11620;SDS011;5866;49.094;11.900;2023-03-03T14:41:34;16.70;;;11.00;;
11620;SDS011;5866;49.094;11.900;2023-03-03T14:44:20;15.50;;;10.88;;
11620;SDS011;5866;49.094;11.900;2023-03-03T14:47:12;19.48;;;11.52;;
11620;SDS011;5866;49.094;11.900;2023-03-03T14:49:45;15.80;;;10.90;;
11620;SDS011;5866;49.094;11.900;2023-03-03T14:52:21;17.33;;;10.80;;
11620;SDS011;5866;49.094;11.900;2023-03-03T14:54:51;21.30;;;11.57;;
11620;SDS011;5866;49.094;11.900;2023-03-03T14:57:20;15.82;;;10.77;;
11620;SDS011;5866;49.094;11.900;2023-03-03T14:59:58;16.85;;;11.25;;
11620;SDS011;5866;49.094;11.900;2023-03-03T15:02:37;15.77;;;10.77;;
11620;SDS011;5866;49.094;11.900;2023-03-03T15:05:11;12.57;;;9.23;;
11620;SDS011;5866;49.094;11.900;2023-03-03T15:07:43;13.40;;;8.70;;
11620;SDS011;5866;49.094;11.900;2023-03-03T15:10:12;11.35;;;8.05;;
11620;SDS011;5866;49.094;11.900;2023-03-03T15:12:52;12.35;;;8.20;;